Time;durP1;ratioP1;P1;durP2;ratioP2;P2;SDS_P1;SDS_P2;PMS_P1;PMS_P2;Temp;Humidity;BMP_temperature;BMP_pressure;BME280_temperature;BME280_humidity;BME280_pressure;Samples;Min_cycle;Max_cycle;Signal;HPM_P1;HPM_P2
2024/01/26 00:01:12;;;;;;;3.22;2.28;;;;;;;;;;6279324;22;19992;-87
2024/01/26 00:03:57;;;;;;;3.72;1.70;;;;;;;;;;6258074;22;20007;-88
2024/01/26 00:06:43;;;;;;;4.50;1.63;;;;;;;;;;6280078;22;20461;-89
2024/01/26 00:09:28;;;;;;;2.53;1.65;;;;;;;;;;6278146;22;19995;-88
2024/01/26 00:12:13;;;;;;;2.35;1.50;;;;;;;;;;6280178;22;20063;-88
2024/01/26 00:15:01;;;;;;;2.75;1.55;;;;;;;;;;6278666;22;20009;-89
2024/01/26 00:17:47;;;;;;;3.15;1.42;;;;;;;;;;6280245;22;20006;-91
2024/01/26 00:20:32;;;;;;;6.25;2.75;;;;;;;;;;6279517;22;20092;-88
2024/01/26 00:23:17;;;;;;;3.08;1.70;;;;;;;;;;6280681;22;19999;-91
2024/01/26 00:26:02;;;;;;;3.35;1.58;;;;;;;;;;6281634;22;19999;-90
2024/01/26 00:28:48;;;;;;;1.65;1.20;;;;;;;;;;6280426;22;19996;-90
2024/01/26 00:31:33;;;;;;;2.53;1.30;;;;;;;;;;6281977;22;20064;-91
2024/01/26 00:34:18;;;;;;;2.67;1.67;;;;;;;;;;6281145;22;20403;-90
2024/01/26 00:37:03;;;;;;;1.88;1.10;;;;;;;;;;6280683;22;19999;-88
2024/01/26 00:39:49;;;;;;;1.73;1.30;;;;;;;;;;6278289;22;20031;-88
2024/01/26 00:42:34;;;;;;;2.90;1.05;;;;;;;;;;6301363;22;19999;-88
2024/01/26 00:45:19;;;;;;;2.15;1.35;;;;;;;;;;6306981;22;20026;-89
2024/01/26 00:48:05;;;;;;;3.67;1.30;;;;;;;;;;6306508;22;20154;-89
2024/01/26 00:50:50;;;;;;;1.80;1.10;;;;;;;;;;6302070;22;20003;-89
2024/01/26 00:53:35;;;;;;;2.65;1.35;;;;;;;;;;6304852;22;19993;-86
2024/01/26 00:56:20;;;;;;;2.22;1.65;;;;;;;;;;6289449;22;19999;-88
2024/01/26 00:59:06;;;;;;;1.30;1.10;;;;;;;;;;6256029;22;19992;-88
2024/01/26 01:01:51;;;;;;;1.75;1.27;;;;;;;;;;6255261;22;20003;-88
2024/01/26 01:04:36;;;;;;;3.00;1.30;;;;;;;;;;6277447;22;20014;-88
2024/01/26 01:07:22;;;;;;;4.65;2.22;;;;;;;;;;6276551;22;20080;-87
2024/01/26 01:10:07;;;;;;;3.15;1.20;;;;;;;;;;6277193;22;20483;-86
2024/01/26 01:12:52;;;;;;;1.23;1.08;;;;;;;;;;6277725;22;20015;-88
2024/01/26 01:15:40;;;;;;;4.53;1.13;;;;;;;;;;6278045;22;20006;-89
2024/01/26 01:18:26;;;;;;;1.77;1.13;;;;;;;;;;6277587;22;20451;-88
2024/01/26 01:21:11;;;;;;;2.35;1.08;;;;;;;;;;6272589;22;20010;-81
2024/01/26 01:23:56;;;;;;;7.40;1.77;;;;;;;;;;6277310;22;20007;-88
2024/01/26 01:26:41;;;;;;;2.15;1.33;;;;;;;;;;6275836;22;20045;-88
2024/01/26 01:29:27;;;;;;;2.05;1.20;;;;;;;;;;6273653;22;20102;-90
2024/01/26 01:32:15;;;;;;;1.60;1.20;;;;;;;;;;6275196;22;20003;-88
2024/01/26 01:35:03;;;;;;;1.75;1.38;;;;;;;;;;6278059;22;20391;-88
2024/01/26 01:37:51;;;;;;;1.92;1.23;;;;;;;;;;6277555;22;20022;-87
2024/01/26 01:40:39;;;;;;;1.20;1.10;;;;;;;;;;6278198;22;20258;-89
2024/01/26 01:43:25;;;;;;;3.03;1.33;;;;;;;;;;6277108;22;20030;-88
2024/01/26 01:46:11;;;;;;;1.80;1.10;;;;;;;;;;6276421;22;20014;-89
2024/01/26 01:49:18;;;;;;;2.42;1.20;;;;;;;;;;6172150;23;20466;-88
2024/01/26 01:52:04;;;;;;;2.40;1.30;;;;;;;;;;6154427;23;20004;-88
2024/01/26 01:54:51;;;;;;;1.60;1.05;;;;;;;;;;6242162;22;20074;-88
2024/01/26 01:57:40;;;;;;;3.45;1.55;;;;;;;;;;6278009;22;19996;-88
2024/01/26 02:00:25;;;;;;;3.92;1.42;;;;;;;;;;6256216;22;19995;-89
2024/01/26 02:03:11;;;;;;;5.53;1.48;;;;;;;;;;6278130;22;20003;-87
2024/01/26 02:05:56;;;;;;;3.15;1.42;;;;;;;;;;6255982;22;20003;-89
2024/01/26 02:08:42;;;;;;;1.67;1.35;;;;;;;;;;6277405;22;20473;-89
2024/01/26 02:11:27;;;;;;;1.38;0.85;;;;;;;;;;6275608;22;20042;-90
2024/01/26 02:14:13;;;;;;;6.45;1.60;;;;;;;;;;6253464;22;19999;-88
2024/01/26 02:16:58;;;;;;;1.50;1.27;;;;;;;;;;6275372;22;20436;-88
2024/01/26 02:19:44;;;;;;;1.75;1.20;;;;;;;;;;6277083;22;20021;-88
2024/01/26 02:22:29;;;;;;;2.00;1.02;;;;;;;;;;6276924;22;20082;-88
2024/01/26 02:25:14;;;;;;;1.35;1.23;;;;;;;;;;6256485;22;20038;-87
2024/01/26 02:28:00;;;;;;;1.10;1.00;;;;;;;;;;6254086;22;20018;-88
2024/01/26 02:30:45;;;;;;;2.97;1.13;;;;;;;;;;6275789;22;20003;-89
2024/01/26 02:33:30;;;;;;;1.25;0.90;;;;;;;;;;6277806;22;19999;-89
2024/01/26 02:36:16;;;;;;;2.53;1.00;;;;;;;;;;6275462;22;20022;-89
2024/01/26 02:39:01;;;;;;;1.15;1.02;;;;;;;;;;6275264;22;20038;-90
2024/01/26 02:41:47;;;;;;;1.65;1.02;;;;;;;;;;6276967;22;20056;-89
2024/01/26 02:44:32;;;;;;;1.58;1.00;;;;;;;;;;6277248;22;20432;-87
2024/01/26 02:47:18;;;;;;;1.20;0.90;;;;;;;;;;6275642;22;20432;-88
2024/01/26 02:50:04;;;;;;;1.25;0.90;;;;;;;;;;6277734;22;20086;-90
2024/01/26 02:52:49;;;;;;;2.33;0.95;;;;;;;;;;6278559;22;20003;-87
2024/01/26 02:55:35;;;;;;;1.27;0.95;;;;;;;;;;6279736;22;20372;-87
2024/01/26 02:58:20;;;;;;;2.30;1.05;;;;;;;;;;6279448;22;20022;-88
2024/01/26 03:01:05;;;;;;;2.05;1.02;;;;;;;;;;6277560;22;20007;-88
2024/01/26 03:03:50;;;;;;;3.08;1.00;;;;;;;;;;6280136;22;20033;-87
2024/01/26 03:06:36;;;;;;;1.92;0.80;;;;;;;;;;6277190;22;20014;-87
2024/01/26 03:09:21;;;;;;;1.67;1.02;;;;;;;;;;6279525;22;19995;-87
2024/01/26 03:12:06;;;;;;;2.58;1.00;;;;;;;;;;6279450;22;20011;-87
2024/01/26 03:14:52;;;;;;;1.63;1.20;;;;;;;;;;6279684;22;20006;-87
2024/01/26 03:17:37;;;;;;;1.63;1.00;;;;;;;;;;6280299;22;20436;-88
2024/01/26 03:20:23;;;;;;;1.38;1.02;;;;;;;;;;6279242;22;19995;-87
2024/01/26 03:29:34;;;;;;;3.80;1.00;;;;;;;;;;6248585;22;20003;-90
2024/01/26 03:32:19;;;;;;;2.22;0.80;;;;;;;;;;6277584;22;20035;-87
2024/01/26 03:35:05;;;;;;;2.65;0.80;;;;;;;;;;6281936;22;19991;-90
2024/01/26 03:37:50;;;;;;;2.88;1.35;;;;;;;;;;6282393;22;19991;-90
2024/01/26 03:40:35;;;;;;;2.35;0.80;;;;;;;;;;6282211;22;20389;-88
2024/01/26 03:43:21;;;;;;;1.10;0.88;;;;;;;;;;6282610;22;19996;-91
2024/01/26 03:46:06;;;;;;;2.17;0.90;;;;;;;;;;6280636;22;20387;-89
2024/01/26 03:48:53;;;;;;;2.58;0.85;;;;;;;;;;6280818;22;20023;-90
2024/01/26 03:51:39;;;;;;;1.10;0.95;;;;;;;;;;6280397;22;19999;-90
2024/01/26 03:54:24;;;;;;;3.05;1.05;;;;;;;;;;6281890;22;20000;-90
2024/01/26 03:57:09;;;;;;;2.53;1.15;;;;;;;;;;6282309;22;19991;-89
2024/01/26 03:59:54;;;;;;;0.68;0.65;;;;;;;;;;6282495;22;19998;-88
2024/01/26 04:02:40;;;;;;;2.72;0.95;;;;;;;;;;6280514;22;20431;-89
2024/01/26 04:05:25;;;;;;;3.90;1.00;;;;;;;;;;6278971;22;20003;-88
2024/01/26 04:08:12;;;;;;;1.23;0.88;;;;;;;;;;6277112;22;19999;-89
2024/01/26 04:10:57;;;;;;;1.17;0.70;;;;;;;;;;6289247;22;20093;-89
2024/01/26 04:13:42;;;;;;;1.73;0.80;;;;;;;;;;6277135;22;20068;-90
2024/01/26 04:16:28;;;;;;;1.33;1.23;;;;;;;;;;6278417;22;19999;-90
2024/01/26 04:19:13;;;;;;;1.58;0.90;;;;;;;;;;6278122;22;19996;-88
2024/01/26 04:21:58;;;;;;;4.88;1.50;;;;;;;;;;6278535;22;20083;-88
2024/01/26 04:24:43;;;;;;;1.67;0.90;;;;;;;;;;6278333;22;19999;-88
2024/01/26 04:27:29;;;;;;;1.35;0.90;;;;;;;;;;6276365;22;20431;-89
2024/01/26 04:30:34;;;;;;;1.13;1.02;;;;;;;;;;6276656;22;19999;-91
2024/01/26 04:36:26;;;;;;;2.67;1.20;;;;;;;;;;6297978;22;20006;-87
2024/01/26 04:39:21;;;;;;;1.90;1.75;;;;;;;;;;6257070;22;20002;-88
2024/01/26 04:42:22;;;;;;;4.22;1.60;;;;;;;;;;6279434;22;20010;-87
2024/01/26 04:45:07;;;;;;;4.82;2.75;;;;;;;;;;6278594;22;20007;-89
2024/01/26 04:47:53;;;;;;;7.30;3.47;;;;;;;;;;6283870;22;20029;-89
2024/01/26 04:50:38;;;;;;;4.32;1.95;;;;;;;;;;6277772;22;20003;-88
2024/01/26 04:53:23;;;;;;;2.17;1.30;;;;;;;;;;6283526;22;20391;-90
2024/01/26 04:56:11;;;;;;;2.95;1.38;;;;;;;;;;6295299;22;20004;-89
2024/01/26 04:58:57;;;;;;;2.95;1.60;;;;;;;;;;6309180;22;20003;-89
2024/01/26 05:01:43;;;;;;;4.28;1.80;;;;;;;;;;6286807;22;20043;-87
2024/01/26 05:04:28;;;;;;;1.48;1.27;;;;;;;;;;6308731;22;20022;-87
2024/01/26 05:07:15;;;;;;;1.98;1.00;;;;;;;;;;6308957;22;20087;-88
2024/01/26 05:10:00;;;;;;;1.85;1.00;;;;;;;;;;6306018;22;20465;-90
2024/01/26 05:12:46;;;;;;;3.88;1.55;;;;;;;;;;6278360;22;20026;-88
2024/01/26 05:15:31;;;;;;;1.13;1.00;;;;;;;;;;6258081;22;20460;-88
2024/01/26 05:18:16;;;;;;;3.20;1.20;;;;;;;;;;6279446;22;19999;-89
2024/01/26 05:21:02;;;;;;;5.10;1.48;;;;;;;;;;6278384;22;20377;-90
2024/01/26 05:23:47;;;;;;;3.08;1.10;;;;;;;;;;6289469;22;20010;-88
2024/01/26 05:26:32;;;;;;;1.85;1.45;;;;;;;;;;6299336;22;20060;-88
2024/01/26 05:29:18;;;;;;;2.35;1.02;;;;;;;;;;6276422;22;20424;-88
2024/01/26 05:32:04;;;;;;;3.15;1.33;;;;;;;;;;6278795;22;20034;-89
2024/01/26 05:34:49;;;;;;;2.67;1.45;;;;;;;;;;6278282;22;20424;-88
2024/01/26 05:37:35;;;;;;;2.53;1.45;;;;;;;;;;6279763;22;20074;-90
2024/01/26 05:40:20;;;;;;;4.55;1.40;;;;;;;;;;6276749;22;19996;-89
2024/01/26 05:43:05;;;;;;;2.97;1.75;;;;;;;;;;6279010;22;20447;-87
2024/01/26 05:45:51;;;;;;;3.60;1.77;;;;;;;;;;6276742;22;20056;-87
2024/01/26 05:48:42;;;;;;;5.47;1.65;;;;;;;;;;6279968;22;19995;-88
2024/01/26 05:51:27;;;;;;;1.75;1.20;;;;;;;;;;6281096;22;20011;-87
2024/01/26 05:54:12;;;;;;;4.30;1.63;;;;;;;;;;6278609;22;20007;-87
2024/01/26 05:56:58;;;;;;;3.03;1.88;;;;;;;;;;6280000;22;20051;-87
2024/01/26 06:06:29;;;;;;;2.78;1.20;;;;;;;;;;6182617;22;20249;-83
2024/01/26 06:09:15;;;;;;;1.92;1.20;;;;;;;;;;6276062;22;20436;-85
2024/01/26 06:12:03;;;;;;;3.83;1.73;;;;;;;;;;6255332;22;20019;-84
2024/01/26 06:14:49;;;;;;;4.20;1.45;;;;;;;;;;6276933;22;20006;-87
2024/01/26 06:17:35;;;;;;;4.90;1.73;;;;;;;;;;6278827;22;20382;-85
2024/01/26 06:20:20;;;;;;;4.78;1.20;;;;;;;;;;6279554;22;19998;-85
2024/01/26 06:23:05;;;;;;;2.70;1.30;;;;;;;;;;6276659;22;19998;-86
2024/01/26 06:25:51;;;;;;;2.90;1.48;;;;;;;;;;6276440;22;20042;-87
2024/01/26 06:28:37;;;;;;;3.72;1.80;;;;;;;;;;6275006;22;20509;-87
2024/01/26 06:31:25;;;;;;;4.45;2.20;;;;;;;;;;6274483;22;20078;-89
2024/01/26 06:34:11;;;;;;;4.27;1.80;;;;;;;;;;6276688;22;20412;-88
2024/01/26 06:36:56;;;;;;;3.05;1.50;;;;;;;;;;6276926;22;20057;-87
2024/01/26 06:39:41;;;;;;;1.98;1.13;;;;;;;;;;6272128;22;20007;-85
2024/01/26 06:42:26;;;;;;;5.38;1.83;;;;;;;;;;6275514;22;20794;-85
2024/01/26 06:45:12;;;;;;;2.78;1.30;;;;;;;;;;6275769;22;20383;-88
2024/01/26 06:47:57;;;;;;;3.42;1.60;;;;;;;;;;6277103;22;20006;-88
2024/01/26 06:50:43;;;;;;;2.33;1.80;;;;;;;;;;6277916;22;20052;-87
2024/01/26 06:53:28;;;;;;;3.85;1.50;;;;;;;;;;6281352;22;20023;-88
2024/01/26 06:56:13;;;;;;;6.18;2.53;;;;;;;;;;6278258;22;20027;-84
2024/01/26 06:58:58;;;;;;;3.70;1.50;;;;;;;;;;6275700;22;20006;-85
2024/01/26 07:01:43;;;;;;;3.58;1.80;;;;;;;;;;6276555;22;19995;-87
2024/01/26 07:04:29;;;;;;;3.25;1.25;;;;;;;;;;6275038;22;20010;-85
2024/01/26 07:07:17;;;;;;;4.07;1.75;;;;;;;;;;6276580;22;19999;-86
2024/01/26 07:10:05;;;;;;;3.72;1.50;;;;;;;;;;6276199;22;20499;-82
2024/01/26 07:12:51;;;;;;;2.67;1.50;;;;;;;;;;6275904;22;20022;-84
2024/01/26 07:15:36;;;;;;;6.68;2.55;;;;;;;;;;6275603;22;20030;-82
2024/01/26 07:18:21;;;;;;;2.50;1.27;;;;;;;;;;6275842;22;19996;-81
2024/01/26 07:21:07;;;;;;;2.70;1.45;;;;;;;;;;6276315;22;20002;-82
2024/01/26 07:23:53;;;;;;;1.52;1.02;;;;;;;;;;6276265;22;20010;-82
2024/01/26 07:26:38;;;;;;;3.53;1.35;;;;;;;;;;6273549;22;20010;-82
2024/01/26 07:29:23;;;;;;;1.85;1.27;;;;;;;;;;6275676;22;20003;-82
2024/01/26 07:32:08;;;;;;;3.10;1.25;;;;;;;;;;6275426;22;20432;-82
2024/01/26 07:34:54;;;;;;;2.85;1.27;;;;;;;;;;6276423;22;20071;-83
2024/01/26 07:37:40;;;;;;;1.92;1.08;;;;;;;;;;6275627;22;19995;-82
2024/01/26 07:40:25;;;;;;;2.05;1.02;;;;;;;;;;6275905;22;20006;-82
2024/01/26 07:43:10;;;;;;;2.97;1.08;;;;;;;;;;6274934;22;20466;-82
2024/01/26 07:45:56;;;;;;;2.88;1.20;;;;;;;;;;6276389;22;20044;-82
2024/01/26 07:48:41;;;;;;;9.75;1.58;;;;;;;;;;6275292;22;20011;-83
2024/01/26 07:51:27;;;;;;;1.27;1.05;;;;;;;;;;6276895;22;20026;-82
2024/01/26 07:54:12;;;;;;;1.60;1.00;;;;;;;;;;6275533;22;20000;-85
2024/01/26 07:56:57;;;;;;;2.92;1.05;;;;;;;;;;6276624;22;19999;-84
2024/01/26 07:59:42;;;;;;;2.58;1.13;;;;;;;;;;6275397;22;20072;-83
2024/01/26 08:02:28;;;;;;;3.05;1.50;;;;;;;;;;6275663;22;20082;-87
2024/01/26 08:05:13;;;;;;;4.93;1.20;;;;;;;;;;6256390;22;19999;-82
2024/01/26 08:07:58;;;;;;;3.72;1.45;;;;;;;;;;6274452;22;20082;-82
2024/01/26 08:10:44;;;;;;;3.33;1.27;;;;;;;;;;6276377;22;20010;-85
2024/01/26 08:13:29;;;;;;;2.20;1.00;;;;;;;;;;6271799;22;20000;-84
2024/01/26 08:16:15;;;;;;;2.90;1.17;;;;;;;;;;6277394;22;19991;-82
2024/01/26 08:19:01;;;;;;;1.63;1.02;;;;;;;;;;6273480;22;20454;-83
2024/01/26 08:25:01;;;;;;;1.98;1.30;;;;;;;;;;6289005;22;19999;-84
2024/01/26 08:27:46;;;;;;;3.50;1.65;;;;;;;;;;6280268;22;20056;-84
2024/01/26 08:30:32;;;;;;;1.50;0.95;;;;;;;;;;6261547;22;20006;-84
2024/01/26 08:33:17;;;;;;;2.97;1.08;;;;;;;;;;6281817;22;20007;-87
2024/01/26 08:36:02;;;;;;;2.13;1.15;;;;;;;;;;6286052;22;20000;-86
2024/01/26 08:38:49;;;;;;;2.88;1.20;;;;;;;;;;6290031;22;20013;-87
2024/01/26 08:41:34;;;;;;;2.83;0.93;;;;;;;;;;6292363;22;19998;-84
2024/01/26 08:44:19;;;;;;;3.05;1.77;;;;;;;;;;6277749;22;19995;-83
2024/01/26 08:47:05;;;;;;;3.63;1.33;;;;;;;;;;6276725;22;19995;-84
2024/01/26 08:49:50;;;;;;;4.90;1.50;;;;;;;;;;6276591;22;20006;-85
2024/01/26 08:52:43;;;;;;;3.75;1.27;;;;;;;;;;6276348;22;19999;-83
2024/01/26 08:55:28;;;;;;;2.78;1.42;;;;;;;;;;6277891;22;20028;-85
2024/01/26 08:58:15;;;;;;;2.55;0.90;;;;;;;;;;6280476;22;20045;-85
2024/01/26 09:01:00;;;;;;;2.10;1.20;;;;;;;;;;6280940;22;20018;-86
2024/01/26 09:03:45;;;;;;;3.05;1.20;;;;;;;;;;6280858;22;19995;-88
2024/01/26 09:06:31;;;;;;;1.42;1.10;;;;;;;;;;6277704;22;20010;-86
2024/01/26 09:09:17;;;;;;;2.90;1.15;;;;;;;;;;6277048;22;20005;-88
2024/01/26 09:12:02;;;;;;;1.60;1.27;;;;;;;;;;6276953;22;20069;-84
2024/01/26 09:14:47;;;;;;;1.60;1.08;;;;;;;;;;6276882;22;20003;-84
2024/01/26 09:17:33;;;;;;;2.83;1.27;;;;;;;;;;6276489;22;20006;-84
2024/01/26 09:20:18;;;;;;;2.88;1.17;;;;;;;;;;6277229;22;20694;-84
2024/01/26 09:23:03;;;;;;;2.10;0.90;;;;;;;;;;6277724;22;20010;-85
2024/01/26 09:25:48;;;;;;;1.48;1.10;;;;;;;;;;6277897;22;20079;-84
2024/01/26 09:28:33;;;;;;;2.20;1.10;;;;;;;;;;6277792;22;19999;-86
2024/01/26 09:31:19;;;;;;;1.27;1.00;;;;;;;;;;6277608;22;20003;-85
2024/01/26 09:34:04;;;;;;;3.35;1.58;;;;;;;;;;6277352;22;20555;-85
2024/01/26 09:36:49;;;;;;;2.70;1.45;;;;;;;;;;6277816;22;20015;-83
2024/01/26 09:39:34;;;;;;;1.40;1.10;;;;;;;;;;6277160;22;19999;-85
2024/01/26 09:42:20;;;;;;;3.80;1.00;;;;;;;;;;6256791;22;20074;-85
2024/01/26 09:45:06;;;;;;;1.05;1.00;;;;;;;;;;6277458;22;20082;-86
2024/01/26 09:47:52;;;;;;;3.10;1.50;;;;;;;;;;6277349;22;20007;-87
2024/01/26 09:50:37;;;;;;;3.65;1.45;;;;;;;;;;6278373;22;19999;-87
2024/01/26 09:53:23;;;;;;;3.88;1.23;;;;;;;;;;6277245;22;20021;-85
2024/01/26 09:56:08;;;;;;;1.40;1.20;;;;;;;;;;6272347;22;20037;-84
2024/01/26 09:58:54;;;;;;;4.53;1.88;;;;;;;;;;6272706;22;19999;-84
2024/01/26 10:01:41;;;;;;;3.05;1.20;;;;;;;;;;6268941;22;19996;-86
2024/01/26 10:04:27;;;;;;;4.10;1.60;;;;;;;;;;6272886;22;19999;-85
2024/01/26 10:07:12;;;;;;;1.90;1.30;;;;;;;;;;6269962;22;20003;-88
2024/01/26 10:09:57;;;;;;;2.75;1.35;;;;;;;;;;6272943;22;19999;-86
2024/01/26 10:12:42;;;;;;;5.78;1.63;;;;;;;;;;6276390;22;20098;-83
2024/01/26 10:15:29;;;;;;;1.50;1.10;;;;;;;;;;6274889;22;20070;-85
2024/01/26 10:18:15;;;;;;;2.28;1.40;;;;;;;;;;6255671;22;19995;-85
2024/01/26 10:21:00;;;;;;;1.77;1.30;;;;;;;;;;6278504;22;20003;-86
2024/01/26 10:23:46;;;;;;;5.35;1.55;;;;;;;;;;6278132;22;20002;-84
2024/01/26 10:26:31;;;;;;;2.00;1.30;;;;;;;;;;6277397;22;20049;-86
2024/01/26 10:29:17;;;;;;;2.90;1.70;;;;;;;;;;6278373;22;20009;-86
2024/01/26 10:32:04;;;;;;;3.67;1.33;;;;;;;;;;6277527;22;20003;-86
2024/01/26 10:34:50;;;;;;;5.85;1.58;;;;;;;;;;6277376;22;19999;-86
2024/01/26 10:37:35;;;;;;;3.75;1.52;;;;;;;;;;6278242;22;19995;-89
2024/01/26 10:40:21;;;;;;;2.47;1.48;;;;;;;;;;6277605;22;20411;-87
2024/01/26 10:43:07;;;;;;;1.52;1.20;;;;;;;;;;6277184;22;20137;-88
2024/01/26 10:45:52;;;;;;;1.92;1.15;;;;;;;;;;6277673;22;20015;-87
2024/01/26 10:48:38;;;;;;;4.65;1.40;;;;;;;;;;6277127;22;20098;-88
2024/01/26 10:51:24;;;;;;;3.70;1.42;;;;;;;;;;6277108;22;20035;-89
2024/01/26 10:54:10;;;;;;;2.38;1.25;;;;;;;;;;6276045;22;20005;-84
2024/01/26 10:56:55;;;;;;;1.80;1.08;;;;;;;;;;6278009;22;20026;-86
2024/01/26 10:59:43;;;;;;;2.72;1.40;;;;;;;;;;6276090;22;20078;-84
2024/01/26 11:02:33;;;;;;;1.98;1.33;;;;;;;;;;6278026;22;20034;-86
2024/01/26 11:05:18;;;;;;;;;;;;;;;;;;6277763;22;20381;-89
2024/01/26 11:08:09;;;;;;;2.65;1.23;;;;;;;;;;6276982;22;19938;-82
2024/01/26 11:10:55;;;;;;;4.78;2.95;;;;;;;;;;6275963;22;20060;-85
2024/01/26 11:13:40;;;;;;;1.38;1.00;;;;;;;;;;6278288;22;20072;-85
2024/01/26 11:16:30;;;;;;;1.42;1.08;;;;;;;;;;6277736;22;20003;-84
2024/01/26 11:19:22;;;;;;;1.73;1.20;;;;;;;;;;6277545;22;20084;-86
2024/01/26 11:22:10;;;;;;;2.85;1.42;;;;;;;;;;6276888;22;20027;-86
2024/01/26 11:24:58;;;;;;;2.08;1.33;;;;;;;;;;6277114;22;20007;-85
2024/01/26 11:27:43;;;;;;;2.22;1.10;;;;;;;;;;6277377;22;20491;-84
2024/01/26 11:30:29;;;;;;;1.30;1.00;;;;;;;;;;6277508;22;19995;-85
2024/01/26 11:33:15;;;;;;;3.95;1.55;;;;;;;;;;6276912;22;20018;-84
2024/01/26 11:36:04;;;;;;;3.42;1.42;;;;;;;;;;6277738;22;20007;-84
2024/01/26 11:38:53;;;;;;;6.05;2.38;;;;;;;;;;6277135;22;20007;-84
2024/01/26 11:41:41;;;;;;;3.72;1.40;;;;;;;;;;6277125;22;20056;-85
2024/01/26 11:44:29;;;;;;;2.50;1.05;;;;;;;;;;6277668;22;20452;-85
2024/01/26 11:47:15;;;;;;;2.42;1.30;;;;;;;;;;6277020;22;19995;-86
2024/01/26 11:50:00;;;;;;;2.78;1.52;;;;;;;;;;6276857;22;19992;-85
2024/01/26 11:52:45;;;;;;;2.28;1.35;;;;;;;;;;6276406;22;20082;-85
2024/01/26 11:55:31;;;;;;;1.88;1.20;;;;;;;;;;6277769;22;19995;-87
2024/01/26 11:58:16;;;;;;;3.65;1.05;;;;;;;;;;6278154;22;20011;-86
2024/01/26 12:01:02;;;;;;;2.58;1.17;;;;;;;;;;6257111;22;20419;-87
2024/01/26 12:03:48;;;;;;;1.30;1.00;;;;;;;;;;6278427;22;20007;-85
2024/01/26 12:06:33;;;;;;;1.92;1.15;;;;;;;;;;6278439;22;20006;-84
2024/01/26 12:09:18;;;;;;;0.93;0.80;;;;;;;;;;6278447;22;20004;-84
2024/01/26 12:12:07;;;;;;;2.92;1.58;;;;;;;;;;6278120;22;20344;-86
2024/01/26 12:14:53;;;;;;;1.30;1.20;;;;;;;;;;6279635;22;20027;-86
2024/01/26 12:17:38;;;;;;;1.13;1.02;;;;;;;;;;6281013;22;20002;-86
2024/01/26 12:20:23;;;;;;;1.30;1.20;;;;;;;;;;6279745;22;19991;-87
2024/01/26 12:23:21;;;;;;;1.23;1.13;;;;;;;;;;6279226;22;20060;-85
2024/01/26 12:26:09;;;;;;;1.45;1.10;;;;;;;;;;6263352;22;20033;-84
2024/01/26 12:28:54;;;;;;;1.75;1.10;;;;;;;;;;6277917;22;20000;-83
2024/01/26 12:31:39;;;;;;;1.98;0.95;;;;;;;;;;6278731;22;20003;-83
2024/01/26 12:34:26;;;;;;;2.92;1.20;;;;;;;;;;6277384;22;20029;-84
2024/01/26 12:37:11;;;;;;;1.20;1.10;;;;;;;;;;6278112;22;20045;-84
2024/01/26 12:39:57;;;;;;;3.22;1.20;;;;;;;;;;6279593;22;20011;-85
2024/01/26 12:42:42;;;;;;;2.15;1.40;;;;;;;;;;6279309;22;20003;-84
2024/01/26 12:45:27;;;;;;;1.90;1.20;;;;;;;;;;6277260;22;20011;-82
2024/01/26 12:48:13;;;;;;;4.13;1.20;;;;;;;;;;6277739;22;20081;-85
2024/01/26 12:51:00;;;;;;;2.10;1.00;;;;;;;;;;6275037;22;20003;-84
2024/01/26 12:53:46;;;;;;;8.27;1.45;;;;;;;;;;6276118;22;20019;-83
2024/01/26 12:56:35;;;;;;;1.65;1.10;;;;;;;;;;6277043;22;20027;-82
2024/01/26 12:59:23;;;;;;;1.92;1.00;;;;;;;;;;6278294;22;19998;-87
2024/01/26 13:02:08;;;;;;;1.77;1.05;;;;;;;;;;6279278;22;20003;-83
2024/01/26 13:04:53;;;;;;;2.65;1.20;;;;;;;;;;6278488;22;20003;-83
2024/01/26 13:07:39;;;;;;;1.30;1.00;;;;;;;;;;6284787;22;19995;-88
2024/01/26 13:15:48;;;;;;;1.23;1.10;;;;;;;;;;6350310;22;20006;-90
2024/01/26 13:18:36;;;;;;;2.83;1.27;;;;;;;;;;6368700;22;20006;-87
2024/01/26 13:21:21;;;;;;;2.42;1.10;;;;;;;;;;6371293;22;19991;-87
2024/01/26 13:24:07;;;;;;;1.40;1.20;;;;;;;;;;6345482;22;19998;-89
2024/01/26 13:30:46;;;;;;;1.50;1.30;;;;;;;;;;6333881;22;20073;-89
2024/01/26 13:33:32;;;;;;;1.50;1.15;;;;;;;;;;6331164;22;20010;-89
2024/01/26 13:36:18;;;;;;;1.42;0.90;;;;;;;;;;6339978;22;20312;-85
2024/01/26 13:39:04;;;;;;;1.42;0.90;;;;;;;;;;6341508;22;20450;-87
2024/01/26 13:41:50;;;;;;;0.98;0.80;;;;;;;;;;6342425;22;20030;-85
2024/01/26 13:44:35;;;;;;;0.90;0.80;;;;;;;;;;6340223;22;20000;-86
2024/01/26 13:47:21;;;;;;;1.60;1.50;;;;;;;;;;6339440;22;20033;-88
2024/01/26 13:50:07;;;;;;;0.82;0.80;;;;;;;;;;6339222;22;20051;-85
2024/01/26 13:52:52;;;;;;;1.33;0.93;;;;;;;;;;6339116;22;20006;-86
2024/01/26 13:55:37;;;;;;;0.82;0.73;;;;;;;;;;6339241;22;20002;-87
2024/01/26 13:58:22;;;;;;;0.93;0.80;;;;;;;;;;6339981;22;20051;-86
2024/01/26 14:01:11;;;;;;;1.00;0.73;;;;;;;;;;6339589;22;20081;-86
2024/01/26 14:03:56;;;;;;;1.23;0.95;;;;;;;;;;6339846;22;20001;-87
2024/01/26 14:06:42;;;;;;;1.35;0.80;;;;;;;;;;6338881;22;19998;-86
2024/01/26 14:09:27;;;;;;;1.58;0.80;;;;;;;;;;6339817;22;20001;-86
2024/01/26 14:12:12;;;;;;;3.05;1.42;;;;;;;;;;6329771;22;20002;-84
2024/01/26 14:14:59;;;;;;;2.65;1.45;;;;;;;;;;6328496;22;20015;-84
2024/01/26 14:17:45;;;;;;;2.83;1.83;;;;;;;;;;6330010;22;19999;-85
2024/01/26 14:20:33;;;;;;;1.77;1.30;;;;;;;;;;6329103;22;20638;-85
2024/01/26 14:23:19;;;;;;;1.75;1.08;;;;;;;;;;6329550;22;20022;-85
2024/01/26 14:26:04;;;;;;;5.28;1.20;;;;;;;;;;6330842;22;20495;-85
2024/01/26 14:28:51;;;;;;;3.90;1.30;;;;;;;;;;6330152;22;20043;-85
2024/01/26 14:31:36;;;;;;;2.85;1.10;;;;;;;;;;6330033;22;20034;-86
2024/01/26 14:34:25;;;;;;;1.65;0.95;;;;;;;;;;6331039;22;19995;-85
2024/01/26 14:37:11;;;;;;;1.95;0.90;;;;;;;;;;6328748;22;20433;-84
2024/01/26 14:39:56;;;;;;;1.25;0.90;;;;;;;;;;6329293;22;20086;-83
2024/01/26 14:42:41;;;;;;;1.15;0.90;;;;;;;;;;6329236;22;20075;-85
2024/01/26 14:45:28;;;;;;;7.97;1.80;;;;;;;;;;6331272;22;19999;-87
2024/01/26 14:48:13;;;;;;;3.05;1.00;;;;;;;;;;6330424;22;20002;-87
2024/01/26 14:50:59;;;;;;;4.97;1.10;;;;;;;;;;6328368;22;20007;-85
2024/01/26 14:53:46;;;;;;;2.50;0.95;;;;;;;;;;6326461;22;20082;-85
2024/01/26 14:56:31;;;;;;;1.02;0.93;;;;;;;;;;6328899;22;20052;-86
2024/01/26 14:59:16;;;;;;;2.20;1.08;;;;;;;;;;6328843;22;20002;-84
2024/01/26 15:02:01;;;;;;;1.15;0.80;;;;;;;;;;6329343;22;19998;-84
2024/01/26 15:04:46;;;;;;;0.93;0.80;;;;;;;;;;6329052;22;20073;-84
2024/01/26 15:07:32;;;;;;;2.13;1.02;;;;;;;;;;6329083;22;20003;-89
2024/01/26 15:10:17;;;;;;;2.13;1.00;;;;;;;;;;6332734;22;19998;-89
2024/01/26 15:12:45;;;;;;;2.55;1.13;;;;;;;;;;6285681;22;20023;-87
2024/01/26 15:15:31;;;;;;;4.28;0.90;;;;;;;;;;6262902;22;20012;-79
2024/01/26 15:18:16;;;;;;;1.98;0.95;;;;;;;;;;6260562;22;20080;-79
2024/01/26 15:21:01;;;;;;;1.63;0.80;;;;;;;;;;6263997;22;20017;-81
2024/01/26 15:23:47;;;;;;;2.08;0.85;;;;;;;;;;6265885;22;20693;-82
2024/01/26 15:26:32;;;;;;;1.48;0.82;;;;;;;;;;6264884;22;20010;-81
2024/01/26 15:29:17;;;;;;;1.95;0.90;;;;;;;;;;6257150;22;20000;-82
2024/01/26 15:32:03;;;;;;;2.28;1.15;;;;;;;;;;6266165;22;20038;-81
2024/01/26 15:34:48;;;;;;;2.15;1.00;;;;;;;;;;6266068;22;20023;-81
2024/01/26 15:37:33;;;;;;;1.67;1.30;;;;;;;;;;6263988;22;19992;-82
2024/01/26 15:40:19;;;;;;;1.95;1.10;;;;;;;;;;6265065;22;20837;-81
2024/01/26 15:43:04;;;;;;;1.70;0.73;;;;;;;;;;6265125;22;20079;-82
2024/01/26 15:45:49;;;;;;;2.28;0.95;;;;;;;;;;6264624;22;20003;-82
2024/01/26 15:48:35;;;;;;;2.08;1.20;;;;;;;;;;6266094;22;20010;-83
2024/01/26 15:51:20;;;;;;;2.00;1.17;;;;;;;;;;6266973;22;20082;-84
2024/01/26 15:54:05;;;;;;;2.05;1.02;;;;;;;;;;6267724;22;20003;-82
2024/01/26 15:56:50;;;;;;;1.05;0.85;;;;;;;;;;6265990;22;20395;-83
2024/01/26 15:59:35;;;;;;;1.05;0.75;;;;;;;;;;6266136;22;20354;-84
2024/01/26 16:02:21;;;;;;;0.40;0.40;;;;;;;;;;6264948;22;20008;-82
2024/01/26 16:05:07;;;;;;;0.50;0.50;;;;;;;;;;6266244;22;20089;-84
2024/01/26 16:07:52;;;;;;;1.17;0.45;;;;;;;;;;6267639;22;20010;-83
2024/01/26 16:10:41;;;;;;;1.00;0.80;;;;;;;;;;6271760;22;20031;-84
2024/01/26 16:13:27;;;;;;;1.60;0.80;;;;;;;;;;6296904;22;20444;-82
2024/01/26 16:16:12;;;;;;;0.57;0.57;;;;;;;;;;6297052;22;20006;-83
2024/01/26 16:18:57;;;;;;;0.70;0.60;;;;;;;;;;6295168;22;20388;-83
2024/01/26 16:21:43;;;;;;;0.82;0.63;;;;;;;;;;6296562;22;20002;-83
2024/01/26 16:24:28;;;;;;;1.50;0.90;;;;;;;;;;6296950;22;20002;-81
2024/01/26 16:27:13;;;;;;;1.15;0.60;;;;;;;;;;6297975;22;20078;-83
2024/01/26 16:29:58;;;;;;;1.45;0.90;;;;;;;;;;6280088;22;20019;-82
2024/01/26 16:32:44;;;;;;;0.80;0.70;;;;;;;;;;6302200;22;20038;-82
2024/01/26 16:35:31;;;;;;;0.70;0.60;;;;;;;;;;6300568;22;19999;-82
2024/01/26 16:38:17;;;;;;;0.82;0.80;;;;;;;;;;6285854;22;20022;-82
2024/01/26 16:41:02;;;;;;;3.22;0.90;;;;;;;;;;6302336;22;19999;-82
2024/01/26 16:43:52;;;;;;;2.53;1.30;;;;;;;;;;6302377;22;20070;-83
2024/01/26 16:46:37;;;;;;;2.45;1.13;;;;;;;;;;6302265;22;19995;-82
2024/01/26 16:49:22;;;;;;;1.98;1.30;;;;;;;;;;6296744;22;20003;-83
2024/01/26 16:52:07;;;;;;;1.98;1.00;;;;;;;;;;6298657;22;20382;-81
2024/01/26 16:54:53;;;;;;;1.98;0.98;;;;;;;;;;6298863;22;20407;-81
2024/01/26 16:57:38;;;;;;;2.28;1.08;;;;;;;;;;6299657;22;20446;-81
2024/01/26 17:00:23;;;;;;;1.92;1.00;;;;;;;;;;6299338;22;19996;-81
2024/01/26 17:03:08;;;;;;;3.92;1.20;;;;;;;;;;6296408;22;20510;-84